• Join FlightAware (Why Join?)
  • Login
  • US Flag 
02:55AM EST


 

Airport Tracker/Info


-or-


 

Live Flight TrackerFlight Track Log ✈ FDX53 ✈ 21-Apr-2013 ✈ KMEM - MMTO / TLC

Flight Track Log - Related Links

Times and Time Zones

All times are in EDT time to prevent confusion due to time zone crossing. See the FDX53 flight status page for this flight to view local times or setup timezone preferences in your user account.

Time Position Orientation Groundspeed Altitude Reporting Facility
EDT Latitude Longitude Course Direction KTS MPH feet Rate Location/Type
05:54PM 35.0500 -89.9833 321° Northwest 162 186 1,100  Level KMEM
05:55PM 35.1000 -90.0333 321° Northwest 246 283 2,400 2,160 Climbing KMEM
05:57PM 35.0803 -90.2100 262° West 282 325 7,600 2,880 Climbing Memphis Center
05:58PM 35.0719 -90.3064 264° West 282 325 10,600 2,460 Climbing Memphis Center
05:59PM 35.0469 -90.3850 249° West 282 325 12,600 1,920 Climbing Memphis Center
06:00PM 35.0156 -90.4711 246° West 282 325 14,500 1,500 Climbing Memphis Center
06:01PM 34.9781 -90.5725 246° West 311 358 15,600 1,140 Climbing Memphis Center
06:02PM 34.9381 -90.6914 248° West 358 412 16,800 1,560 Climbing Memphis Center
06:03PM 34.8939 -90.8128 246° West 390 449 18,800 1,980 Climbing Memphis Center
06:04PM 34.8725 -90.9519 259° West 412 474 20,800 1,980 Climbing Memphis Center
06:05PM 34.8486 -91.0961 259° West 434 499 22,800 2,040 Climbing Memphis Center
06:06PM 34.8247 -91.2500 259° West 439 505 24,900 1,860 Climbing Memphis Center
06:07PM 34.8006 -91.3992 259° West 439 505 26,600 1,560 Climbing Memphis Center
06:08PM 34.7806 -91.5481 261° West 450 518 28,100 1,620 Climbing Memphis Center
06:09PM 34.7478 -91.6967 255° West 457 526 29,900 1,860 Climbing Memphis Center
06:10PM 34.6839 -91.8042 234° Southwest 442 509 31,900 1,020 Climbing Memphis Center
06:11PM 34.5767 -91.8883 213° Southwest 442 509 32,000  Climbing Memphis Center
06:12PM 34.4631 -91.9642 209° Southwest 451 519 32,000  Level Memphis Center
06:13PM 34.3472 -92.0375 208° Southwest 465 535 32,000  Level Memphis Center
06:14PM 34.2314 -92.1108 208° Southwest 470 541 32,000  Level Memphis Center
06:15PM 34.1175 -92.1886 209° Southwest 475 547 32,000  Level Memphis Center
06:17PM 33.8669 -92.3533 209° Southwest 463 533 32,000  Level Fort Worth Center
06:18PM 33.7550 -92.4272 209° Southwest 468 539 32,000  Level Fort Worth Center
06:19PM 33.6411 -92.5011 208° Southwest 463 533 32,000  Level Fort Worth Center
06:20PM 33.5289 -92.5697 207° Southwest 463 533 32,000  Level Fort Worth Center
06:21PM 33.4150 -92.6456 209° Southwest 463 533 32,000  Level Fort Worth Center
06:22PM 33.2989 -92.7189 208° Southwest 463 533 32,000  Level Fort Worth Center
06:23PM 33.1911 -92.7967 211° Southwest 463 533 32,000  Level Fort Worth Center
06:24PM 33.0878 -92.8811 214° Southwest 457 526 32,000  Level Fort Worth Center
06:25PM 32.9864 -92.9656 215° Southwest 452 520 32,000  Level Fort Worth Center
06:26PM 32.8831 -93.0500 214° Southwest 452 520 32,000  Level Fort Worth Center
06:28PM 32.6975 -93.2028 215° Southwest 448 516 32,000  Level Houston Center
06:29PM 32.5942 -93.2864 214° Southwest 450 518 32,000  Level Houston Center
06:34PM 32.0273 -93.7393 214° Southwest 452 520 32,000  Level FlightAware ADS-B
06:35PM 31.9498 -93.8014 214° Southwest 452 520 32,100  Climbing FlightAware ADS-B
06:36PM 31.8720 -93.8634 214° Southwest 450 518 32,000 -120 Descending FlightAware ADS-B
06:36PM 31.7980 -93.9224 214° Southwest 450 518 32,000  Level FlightAware ADS-B
06:40PM 31.4535 -94.1938 214° Southwest 449 517 32,000  Level FlightAware ADS-B
06:40PM 31.4153 -94.2237 214° Southwest 449 517 32,000  Level FlightAware ADS-B
06:40PM 31.4005 -94.2345 212° Southwest 450 518 32,000  Level FlightAware ADS-B
06:41PM 31.3621 -94.2643 214° Southwest 450 518 32,000  Level FlightAware ADS-B
06:41PM 31.2880 -94.3226 214° Southwest 450 518 32,000  Level FlightAware ADS-B
06:42PM 31.2326 -94.3660 214° Southwest 451 519 32,000  Level FlightAware ADS-B
06:42PM 31.1795 -94.4081 214° Southwest 451 519 32,000  Level FlightAware ADS-B
06:43PM 31.1261 -94.4489 213° Southwest 453 521 32,000  Level FlightAware ADS-B
06:43PM 31.1058 -94.4651 214° Southwest 453 521 32,000  Level FlightAware ADS-B
06:43PM 31.0714 -94.4922 214° Southwest 453 521 32,000  Level FlightAware ADS-B
06:44PM 31.0316 -94.5221 213° Southwest 453 521 32,000  Level FlightAware ADS-B
06:44PM 31.0126 -94.5369 214° Southwest 452 520 32,000  Level FlightAware ADS-B
06:44PM 30.9703 -94.5693 213° Southwest 452 520 32,000  Level FlightAware ADS-B
06:45PM 30.9590 -94.5787 216° Southwest 451 519 32,000  Level FlightAware ADS-B
06:45PM 30.9119 -94.6151 214° Southwest 450 518 32,000  Level FlightAware ADS-B
06:45PM 30.9051 -94.6205 214° Southwest 450 518 32,000  Level FlightAware ADS-B
06:45PM 30.8586 -94.6568 214° Southwest 450 518 32,000  Level FlightAware ADS-B
06:46PM 30.8516 -94.6622 214° Southwest 450 518 32,000  Level FlightAware ADS-B
06:46PM 30.8007 -94.7012 213° Southwest 450 518 32,000  Level FlightAware ADS-B
06:46PM 30.7967 -94.7051 220° Southwest 450 518 32,000  Level FlightAware ADS-B
06:47PM 30.7485 -94.7413 213° Southwest 449 517 32,000  Level FlightAware ADS-B
06:47PM 30.7439 -94.7453 217° Southwest 449 517 32,000  Level FlightAware ADS-B
06:47PM 30.6927 -94.7839 213° Southwest 449 517 32,000  Level FlightAware ADS-B
06:47PM 30.6867 -94.7893 218° Southwest 449 517 32,000  Level FlightAware ADS-B
06:48PM 30.6359 -94.8280 213° Southwest 449 517 32,000  Level FlightAware ADS-B
06:48PM 30.6340 -94.8293 210° Southwest 449 517 32,000  Level FlightAware ADS-B
06:48PM 30.5791 -94.8719 214° Southwest 448 516 32,000  Level FlightAware ADS-B
06:48PM 30.5773 -94.8732 212° Southwest 448 516 32,000  Level FlightAware ADS-B
06:49PM 30.5268 -94.9116 213° Southwest 448 516 32,000  Level FlightAware ADS-B
06:49PM 30.5214 -94.9155 212° Southwest 448 516 32,000  Level FlightAware ADS-B
06:49PM 30.4738 -94.9526 214° Southwest 447 514 32,000  Level FlightAware ADS-B
06:49PM 30.4693 -94.9553 207° Southwest 447 514 32,000  Level FlightAware ADS-B
06:50PM 30.4218 -94.9923 214° Southwest 447 514 32,000  Level FlightAware ADS-B
06:50PM 30.4173 -94.9950 207° Southwest 447 514 32,000  Level FlightAware ADS-B
06:50PM 30.3694 -95.0320 214° Southwest 447 514 32,000  Level FlightAware ADS-B
06:50PM 30.3620 -95.0372 211° Southwest 446 513 32,000  Level FlightAware ADS-B
06:51PM 30.3101 -95.0781 214° Southwest 447 514 32,000  Level FlightAware ADS-B
06:51PM 30.3077 -95.0794 205° Southwest 447 514 32,000  Level FlightAware ADS-B
06:51PM 30.2581 -95.1178 214° Southwest 447 514 32,000  Level FlightAware ADS-B
06:51PM 30.2475 -95.1257 213° Southwest 448 516 32,000  Level FlightAware ADS-B
06:52PM 30.2054 -95.1571 213° Southwest 448 516 32,000  Level FlightAware ADS-B
06:52PM 30.1952 -95.1652 214° Southwest 449 517 32,000  Level FlightAware ADS-B
06:52PM 30.1526 -95.1968 213° Southwest 449 517 32,000  Level FlightAware ADS-B
06:52PM 30.1423 -95.2048 214° Southwest 449 517 32,000  Level FlightAware ADS-B
06:53PM 30.1000 -95.2364 213° Southwest 450 518 32,000  Level FlightAware ADS-B
06:53PM 30.0900 -95.2443 214° Southwest 450 518 32,000  Level FlightAware ADS-B
06:53PM 30.0477 -95.2775 214° Southwest 451 519 32,000  Level FlightAware ADS-B
06:53PM 30.0357 -95.2854 210° Southwest 451 519 32,000  Level FlightAware ADS-B
06:54PM 29.9933 -95.3185 214° Southwest 452 520 32,000  Level FlightAware ADS-B
06:54PM 29.9825 -95.3264 212° Southwest 452 520 32,000  Level FlightAware ADS-B
06:54PM 29.9345 -95.3622 213° Southwest 452 520 32,000  Level FlightAware ADS-B
06:54PM 29.9294 -95.3663 215° Southwest 452 520 32,000  Level FlightAware ADS-B
06:55PM 29.8833 -95.4041 215° Southwest 450 518 32,000  Level FlightAware ADS-B
06:55PM 29.8780 -95.4083 214° Southwest 451 519 32,000  Level FlightAware ADS-B
06:55PM 29.8313 -95.4478 216° Southwest 452 520 32,000  Level FlightAware ADS-B
06:55PM 29.8206 -95.4562 214° Southwest 452 520 32,000  Level FlightAware ADS-B
06:56PM 29.7796 -95.4897 215° Southwest 452 520 32,000  Level FlightAware ADS-B
06:56PM 29.7678 -95.4994 216° Southwest 452 520 32,000  Level FlightAware ADS-B
06:56PM 29.7229 -95.5356 215° Southwest 453 521 32,000  Level FlightAware ADS-B
06:57PM 29.7091 -95.5468 215° Southwest 453 521 32,000  Level FlightAware ADS-B
06:57PM 29.6710 -95.5788 216° Southwest 453 521 32,000  Level FlightAware ADS-B
06:57PM 29.6572 -95.5898 215° Southwest 453 521 32,000 180 Level FlightAware ADS-B
06:57PM 29.6194 -95.6205 215° Southwest 452 520 32,100  Climbing FlightAware ADS-B
06:58PM 29.5673 -95.6621 215° Southwest 451 519 32,000 -120 Descending FlightAware ADS-B
06:58PM 29.5215 -95.6994 215° Southwest 452 520 32,000  Level FlightAware ADS-B
06:58PM 29.5155 -95.7049 219° Southwest 451 519 32,000  Level FlightAware ADS-B
06:59PM 29.4642 -95.7463 215° Southwest 450 518 32,000  Level FlightAware ADS-B
06:59PM 29.4127 -95.7875 215° Southwest 449 517 32,000  Level FlightAware ADS-B
07:00PM 29.3961 -95.8013 216° Southwest 450 518 32,000  Level FlightAware ADS-B
07:00PM 29.3585 -95.8315 215° Southwest 449 517 32,000  Level FlightAware ADS-B
07:01PM 29.2975 -95.8807 215° Southwest 448 516 32,000  Level FlightAware ADS-B
07:01PM 29.2465 -95.9218 215° Southwest 448 516 32,000  Level FlightAware ADS-B
07:02PM 29.1952 -95.9625 215° Southwest 446 513 32,000  Level FlightAware ADS-B
07:02PM 29.1375 -96.0085 215° Southwest 446 513 32,000  Level FlightAware ADS-B
07:03PM 29.0840 -96.0520 215° Southwest 443 510 32,000  Level FlightAware
07:03PM 29.0328 -96.0921 214° Southwest 444 511 32,000  Level FlightAware ADS-B
07:04PM 28.9778 -96.1365 215° Southwest 444 511 32,000  Level FlightAware ADS-B
07:04PM 28.9110 -96.1890 215° Southwest 444 511 32,000  Level FlightAware ADS-B
07:05PM 28.8371 -96.2480 215° Southwest 445 512 32,000  Level FlightAware ADS-B
07:06PM 28.7390 -96.3410 220° Southwest 428 493 32,000  Level FlightAware
07:07PM 28.6790 -96.4220 230° Southwest 430 495 32,000  Level FlightAware
07:08PM 28.6290 -96.4870 229° Southwest 430 495 32,000  Level FlightAware
07:08PM 28.5710 -96.5650 230° Southwest 430 495 32,000  Level FlightAware
07:09PM 28.5280 -96.6210 229° Southwest 429 494 32,000  Level FlightAware
07:10PM 28.4840 -96.6790 229° Southwest 429 494 32,000  Level FlightAware
07:10PM 28.4280 -96.7510 229° Southwest 429 494 32,000  Level FlightAware
07:11PM 28.3840 -96.8090 229° Southwest 429 494 32,000  Level FlightAware
07:12PM 28.3400 -96.8670 229° Southwest 429 494 32,000  Level FlightAware
07:12PM 28.2960 -96.9250 229° Southwest 429 494 32,000  Level FlightAware
07:13PM 28.2510 -96.9820 228° Southwest 429 494 32,000  Level FlightAware
07:14PM 28.1960 -97.0550 229° Southwest 429 494 32,000  Level FlightAware
07:15PM 28.1520 -97.1120 229° Southwest 429 494 32,000  Level FlightAware
07:15PM 28.1080 -97.1700 229° Southwest 429 494 32,000  Level FlightAware
07:16PM 28.0630 -97.2280 229° Southwest 429 494 32,000  Level FlightAware
07:17PM 27.7650 -97.1490 167° South 473 544 32,000  Level FlightAware
07:17PM 27.6770 -97.1660 190° South 474 545 32,000  Level FlightAware
07:18PM 27.5910 -97.1820 189° South 476 548 32,000  Level FlightAware
07:19PM 27.4900 -97.2010 189° South 480 552 32,000  Level FlightAware
07:19PM 27.4010 -97.2180 190° South 483 556 32,000 60 Level FlightAware
07:20PM 27.3120 -97.2350 190° South 484 557 32,100 60 Climbing FlightAware
07:21PM 27.2150 -97.2540 190° South 484 557 32,100 -120 Level FlightAware
07:21PM 27.1270 -97.2700 189° South 483 556 32,000 -120 Descending FlightAware
07:22PM 27.0390 -97.2870 190° South 481 554 32,000  Level FlightAware
07:23PM 26.9370 -97.3060 189° South 481 554 32,000  Level FlightAware
07:24PM 26.8390 -97.3250 190° South 480 552 32,000  Level FlightAware
07:24PM 26.7510 -97.3410 189° South 479 551 32,000  Level FlightAware
07:25PM 26.6640 -97.3570 189° South 477 549 32,000  Level FlightAware
07:26PM 26.5680 -97.3755 190° South 476 548 32,000  Level FlightAware ADS-B
07:26PM 26.4991 -97.3883 189° South 476 548 32,000  Level FlightAware ADS-B
07:27PM 26.3920 -97.4090 190° South 474 545 32,000  Level FlightAware
07:28PM 26.2920 -97.4270 189° South 475 547 32,000  Level FlightAware
07:28PM 26.2050 -97.4430 189° South 477 549 32,000 60 Level FlightAware
07:29PM 26.1090 -97.4610 190° South 477 549 32,100 60 Climbing FlightAware
07:30PM 26.0080 -97.4800 190° South 476 548 32,100 -120 Level FlightAware
07:30PM 25.9360 -97.4930 189° South 475 547 32,000 -120 Descending FlightAware
07:31PM 25.8460 -97.5100 190° South 473 544 32,000  Level FlightAware
07:32PM 25.7540 -97.5400 196° South 451 519 32,000  Level FlightAware
07:33PM 25.6750 -97.5920 211° Southwest 444 511 32,000  Level FlightAware
07:33PM 25.6050 -97.6430 213° Southwest 447 514 32,000  Level FlightAware
07:34PM 25.5280 -97.6970 212° Southwest 451 519 32,000  Level FlightAware
07:35PM 25.4560 -97.7490 213° Southwest 451 519 32,000 60 Level FlightAware
07:35PM 25.3840 -97.7990 212° Southwest 453 521 32,100  Climbing FlightAware
07:36PM 25.3070 -97.8550 213° Southwest 451 519 32,000 -120 Descending FlightAware
07:37PM 25.2360 -97.9050 213° Southwest 451 519 32,000  Level FlightAware
07:38PM 25.1580 -97.9610 213° Southwest 450 518 32,000  Level FlightAware
07:38PM 25.0840 -98.0130 212° Southwest 450 518 32,000  Level FlightAware
07:39PM 25.0130 -98.0630 213° Southwest 451 519 32,000  Level FlightAware
07:40PM 24.9380 -98.1160 213° Southwest 454 522 32,000  Level FlightAware
07:40PM 24.8730 -98.1610 212° Southwest 454 522 32,000  Level FlightAware
07:41PM 24.7830 -98.2240 212° Southwest 456 525 32,000 60 Level FlightAware
07:42PM 24.7130 -98.2710 211° Southwest 456 525 32,100  Climbing FlightAware
07:42PM 24.6400 -98.3210 212° Southwest 455 524 32,000 -120 Descending FlightAware
07:43PM 24.5470 -98.3860 212° Southwest 455 524 32,000  Level FlightAware
07:44PM 24.4870 -98.4270 212° Southwest 455 524 32,000  Level FlightAware
07:45PM 24.4260 -98.4690 212° Southwest 455 524 32,000  Level FlightAware
07:45PM 24.3500 -98.5210 212° Southwest 455 524 32,000  Level FlightAware
07:46PM 24.2890 -98.5630 212° Southwest 455 524 32,000  Level FlightAware
07:47PM 24.2290 -98.6040 212° Southwest 455 524 32,000  Level FlightAware
07:47PM 24.1680 -98.6460 212° Southwest 455 524 32,000  Level FlightAware
07:48PM 24.1070 -98.6870 212° Southwest 455 524 32,000  Level FlightAware
07:49PM 24.0310 -98.7390 212° Southwest 455 524 32,000  Level FlightAware
07:50PM 23.9710 -98.7810 213° Southwest 455 524 32,000  Level FlightAware
07:50PM 23.9100 -98.8220 212° Southwest 455 524 32,000  Level FlightAware
07:51PM 23.8490 -98.8640 212° Southwest 455 524 32,000  Level FlightAware
07:52PM 23.7880 -98.9050 212° Southwest 455 524 32,000  Level FlightAware
07:52PM 23.7130 -98.9570 212° Southwest 455 524 32,000 -240 Level FlightAware
07:55PM 23.4724 -98.9915 187° South  Level Estimated
07:56PM 23.3550 -99.0083 187° South  Level Estimated
07:57PM 23.2376 -99.0250 187° South  Level Estimated
07:58PM 23.1202 -99.0417 187° South  Level Estimated
07:59PM 23.0028 -99.0584 187° South  Level Estimated
08:00PM 22.8854 -99.0751 187° South  Level Estimated
08:01PM 22.7680 -99.0917 187° South  Level Estimated
08:02PM 22.6507 -99.1083 187° South  Level Estimated
08:03PM 22.5333 -99.1249 187° South  Level Estimated
08:04PM 22.4158 -99.1415 187° South  Level Estimated
08:05PM 22.2985 -99.1580 187° South  Level Estimated
08:06PM 22.1810 -99.1745 187° South  Level Estimated
08:07PM 22.0637 -99.1909 187° South  Level Estimated
08:08PM 21.9463 -99.2074 187° South  Level Estimated
08:09PM 21.8288 -99.2238 187° South  Level Estimated
08:10PM 21.7114 -99.2402 187° South  Level Estimated
08:11PM 21.5940 -99.2565 187° South  Level Estimated
08:12PM 21.4766 -99.2729 187° South  Level Estimated
08:13PM 21.3592 -99.2892 187° South  Level Estimated
08:14PM 21.2418 -99.3054 187° South  Level Estimated
08:14PM 20.8580 -100.0990 187° South 441 507 27,600  Level FlightAware
08:15PM 20.7770 -100.1300 200° South 436 502 26,100 -2,280 Descending FlightAware
08:16PM 20.6940 -100.1630 200° South 429 494 24,400 -2,280 Descending FlightAware
08:16PM 20.6230 -100.1780 191° South 433 498 23,100 -1,560 Descending FlightAware
08:17PM 20.5290 -100.1540 167° South 437 503 22,200 -1,140 Descending FlightAware
08:18PM 20.4620 -100.1240 157° South 434 499 21,500 -540 Descending FlightAware
08:19PM 20.3890 -100.0930 158° South 434 499 21,500  Level FlightAware
08:19PM 20.3250 -100.0660 158° South 434 499 21,500  Level FlightAware
08:20PM 20.2620 -100.0380 157° South 434 499 21,500  Level FlightAware
08:21PM 20.1830 -100.0040 158° South 434 499 21,500  Level FlightAware
08:21PM 20.1200 -99.9770 158° South 434 499 21,500 -2,880 Level FlightAware
08:22PM 20.0490 -99.9550 164° South 319 367 17,700 -3,060 Descending FlightAware
08:23PM 20.0070 -99.9380 159° South 319 367 17,700 -780 Level FlightAware
08:23PM 19.9320 -99.9090 160° South 311 358 16,600 -1,020 Descending FlightAware
08:24PM 19.8690 -99.8850 160° South 316 364 16,100 -720 Descending FlightAware
08:25PM 19.8140 -99.8630 159° South 316 364 15,600 -780 Descending FlightAware
08:26PM 19.7600 -99.8420 160° South 324 373 15,100 -900 Descending FlightAware
08:26PM 19.6930 -99.8160 160° South 323 372 14,400 -540 Descending FlightAware
08:27PM 19.6500 -99.7990 160° South 323 372 14,400  Level FlightAware
08:28PM 19.6020 -99.7810 161° South 323 372 14,400  Level FlightAware
08:28PM 19.5540 -99.7620 160° South 323 372 14,400  Level FlightAware
08:31PM 19.3467 -99.5747 140° Southeast  Level Estimated
08:32PM 19.3371 -99.5660 140° Southeast  Level Estimated
08:33PM 19.3371 -99.5660 43° Northeast  Level Estimated
08:34PM 19.3371 -99.5660 43° Northeast  Level Estimated
08:35PM 19.3371 -99.5660 43° Northeast  Level Estimated
08:36PM 19.3371 -99.5660 43° Northeast  Level Estimated
08:37PM 19.3371 -99.5660 43° Northeast  Level Estimated
08:38PM 19.3371 -99.5660 43° Northeast  Level Estimated
08:39PM 19.3371 -99.5660 43° Northeast  Level Estimated
08:40PM 19.3371 -99.5660 43° Northeast  Level Estimated
08:41PM 19.3371 -99.5660 43° Northeast  Level Estimated
08:42PM 19.3371 -99.5660 43° Northeast  Level Estimated
08:43PM 19.3371 -99.5660 43° Northeast  Level Estimated
08:44PM 19.3371 -99.5660 43° Northeast  Level Estimated
08:45PM 19.3371 -99.5660 43° Northeast  Level Estimated
08:46PM 19.3371 -99.5660 43° Northeast  Level Estimated
08:47PM 19.3371 -99.5660 43° Northeast  Level Estimated
08:48PM 19.3371 -99.5660 43° Northeast  Level Estimated